Time;durP1;ratioP1;P1;durP2;ratioP2;P2;SDS_P1;SDS_P2;PMS_P1;PMS_P2;Temp;Humidity;BMP_temperature;BMP_pressure;BME280_temperature;BME280_humidity;BME280_pressure;Samples;Min_cycle;Max_cycle;Signal;HPM_P1;HPM_P2
2021/12/28 00:01:08;;;;;;;43.05;21.80;;;6.50;99.90;;;;;;5031632;28;20045;-63
2021/12/28 00:03:36;;;;;;;43.72;22.33;;;6.50;99.90;;;;;;5030424;28;20081;-63
2021/12/28 00:06:02;;;;;;;42.50;21.67;;;6.50;99.90;;;;;;5030163;28;20100;-63
2021/12/28 00:08:28;;;;;;;47.00;22.88;;;6.50;99.90;;;;;;5030091;28;20045;-63
2021/12/28 00:10:55;;;;;;;47.45;22.35;;;6.60;99.90;;;;;;5031351;28;20049;-63
2021/12/28 00:13:21;;;;;;;50.83;23.70;;;6.60;99.90;;;;;;5031340;28;20049;-63
2021/12/28 00:16:12;;;;;;;44.20;23.58;;;6.60;99.90;;;;;;5031280;28;20409;-62
2021/12/28 00:18:37;;;;;;;49.30;22.95;;;6.60;99.90;;;;;;5031183;28;20084;-63
2021/12/28 00:21:06;;;;;;;47.28;23.38;;;6.60;99.90;;;;;;5029812;28;20067;-63
2021/12/28 00:23:39;;;;;;;47.35;23.75;;;6.70;99.90;;;;;;5030825;28;20049;-63
2021/12/28 00:26:08;;;;;;;46.00;23.42;;;6.70;99.90;;;;;;5031170;28;20087;-63
2021/12/28 00:28:34;;;;;;;52.80;24.15;;;6.70;99.90;;;;;;5030913;28;20485;-63
2021/12/28 00:31:00;;;;;;;55.20;25.00;;;6.70;99.90;;;;;;5031095;28;20131;-63
2021/12/28 00:33:26;;;;;;;50.42;23.27;;;6.80;99.90;;;;;;5029443;28;20084;-63
2021/12/28 00:35:53;;;;;;;51.25;24.45;;;6.80;99.90;;;;;;5029978;28;20038;-63
2021/12/28 00:38:24;;;;;;;48.30;23.73;;;6.80;99.90;;;;;;5030758;28;20515;-63
2021/12/28 00:40:56;;;;;;;56.15;25.58;;;6.90;99.90;;;;;;5031000;28;20052;-63
2021/12/28 00:43:22;;;;;;;52.03;23.52;;;6.90;99.90;;;;;;5030679;28;20046;-63
2021/12/28 00:45:48;;;;;;;47.22;23.52;;;6.90;99.90;;;;;;5030855;28;20048;-63
2021/12/28 00:48:14;;;;;;;47.30;23.02;;;7.00;99.90;;;;;;5030631;28;20044;-62
2021/12/28 00:50:41;;;;;;;53.65;23.60;;;7.00;99.90;;;;;;5030324;28;20045;-63
2021/12/28 00:53:07;;;;;;;54.40;24.42;;;7.10;99.90;;;;;;5029066;28;20073;-63
2021/12/28 00:55:34;;;;;;;47.05;22.92;;;7.10;99.90;;;;;;5030548;28;20066;-63
2021/12/28 00:57:59;;;;;;;53.90;24.77;;;7.10;99.90;;;;;;5030726;28;20108;-63
2021/12/28 01:00:28;;;;;;;57.75;25.55;;;7.20;99.90;;;;;;5030584;28;20446;-63
2021/12/28 01:02:54;;;;;;;58.55;24.70;;;7.20;99.90;;;;;;5030201;28;20034;-63
2021/12/28 01:05:21;;;;;;;57.28;25.55;;;7.30;99.90;;;;;;5030012;28;20038;-63
2021/12/28 01:07:46;;;;;;;53.53;24.95;;;7.30;99.90;;;;;;5030779;28;20603;-64
2021/12/28 01:10:18;;;;;;;53.22;24.92;;;7.30;99.90;;;;;;5028955;28;20041;-63
2021/12/28 01:12:44;;;;;;;56.33;23.80;;;7.30;99.90;;;;;;5030130;28;20053;-63
2021/12/28 01:15:11;;;;;;;61.97;25.83;;;7.30;99.90;;;;;;5030269;28;20481;-63
2021/12/28 01:17:38;;;;;;;65.00;25.08;;;7.40;99.90;;;;;;5030194;28;20072;-63
2021/12/28 01:20:06;;;;;;;61.55;25.85;;;7.40;99.90;;;;;;5029109;28;20809;-63
2021/12/28 01:22:32;;;;;;;63.58;26.35;;;7.40;99.90;;;;;;5028564;28;20049;-63
2021/12/28 01:24:57;;;;;;;63.78;27.27;;;7.40;99.90;;;;;;5029966;28;20040;-63
2021/12/28 01:27:23;;;;;;;70.75;26.67;;;7.50;99.90;;;;;;5030091;28;20051;-63
2021/12/28 01:29:49;;;;;;;76.28;27.50;;;7.50;99.90;;;;;;5028837;28;20417;-63
2021/12/28 01:32:15;;;;;;;72.13;25.25;;;7.50;99.90;;;;;;5029735;28;20039;-63
2021/12/28 01:34:40;;;;;;;62.45;26.63;;;7.50;99.90;;;;;;5029774;28;20039;-63
2021/12/28 01:37:06;;;;;;;69.35;27.02;;;7.60;99.90;;;;;;5030088;28;20112;-63
2021/12/28 01:39:32;;;;;;;73.28;26.45;;;7.60;99.90;;;;;;5030092;28;20098;-64
2021/12/28 01:42:02;;;;;;;65.68;26.08;;;7.60;99.90;;;;;;5029919;28;20561;-63
2021/12/28 01:44:29;;;;;;;64.47;26.90;;;7.60;99.90;;;;;;5029546;28;20715;-63
2021/12/28 01:46:55;;;;;;;65.30;26.60;;;7.60;99.90;;;;;;5029307;28;20041;-63
2021/12/28 01:49:20;;;;;;;66.07;26.92;;;7.70;99.90;;;;;;5029990;28;20145;-63
2021/12/28 01:51:46;;;;;;;73.15;27.63;;;7.60;99.90;;;;;;5029848;28;20079;-63
2021/12/28 01:54:11;;;;;;;73.43;28.00;;;7.70;99.90;;;;;;5029409;28;20041;-63
2021/12/28 01:56:40;;;;;;;80.00;28.67;;;7.70;99.90;;;;;;5029751;28;20087;-63
2021/12/28 01:59:08;;;;;;;77.70;28.20;;;7.70;99.90;;;;;;5029860;28;20057;-63
2021/12/28 02:01:35;;;;;;;66.63;26.50;;;7.70;99.90;;;;;;5028267;28;20420;-63
2021/12/28 02:04:02;;;;;;;60.28;24.95;;;7.70;99.90;;;;;;5028304;28;20111;-63
2021/12/28 02:06:28;;;;;;;69.05;26.75;;;7.70;99.90;;;;;;5029767;28;20554;-63
2021/12/28 02:08:55;;;;;;;71.55;27.42;;;7.70;99.90;;;;;;5029668;28;20107;-63
2021/12/28 02:11:22;;;;;;;69.88;27.48;;;7.70;99.90;;;;;;5029792;28;20529;-63
2021/12/28 02:13:49;;;;;;;61.15;25.55;;;7.70;99.90;;;;;;5029305;28;20537;-63
2021/12/28 02:16:15;;;;;;;73.97;26.10;;;7.70;99.90;;;;;;5029286;28;20767;-63
2021/12/28 02:18:40;;;;;;;69.50;27.77;;;7.70;99.90;;;;;;5029627;28;20041;-63
2021/12/28 02:21:07;;;;;;;58.30;25.67;;;7.70;99.90;;;;;;5029550;28;20045;-63
2021/12/28 02:23:34;;;;;;;72.93;27.08;;;7.70;99.90;;;;;;5029255;28;20038;-63
2021/12/28 02:26:00;;;;;;;57.08;24.20;;;7.70;99.90;;;;;;5028609;28;20560;-63
2021/12/28 02:28:25;;;;;;;63.28;25.45;;;7.70;99.90;;;;;;5029286;28;20124;-63
2021/12/28 02:30:56;;;;;;;60.85;25.20;;;7.70;99.90;;;;;;5029383;28;20132;-63
2021/12/28 02:33:25;;;;;;;60.70;26.38;;;7.70;99.90;;;;;;5029544;28;20041;-63
2021/12/28 02:35:53;;;;;;;57.13;24.80;;;7.70;99.90;;;;;;5029410;28;20037;-63
2021/12/28 02:38:19;;;;;;;69.10;26.48;;;7.70;99.90;;;;;;5029363;28;20132;-63
2021/12/28 02:40:45;;;;;;;64.00;25.45;;;7.70;99.90;;;;;;5029364;28;20125;-63
2021/12/28 02:43:13;;;;;;;60.30;25.15;;;7.70;99.90;;;;;;5029145;28;20041;-63
2021/12/28 02:45:51;;;;;;;60.72;24.90;;;7.80;99.90;;;;;;5029389;28;20106;-63
2021/12/28 02:48:17;;;;;;;55.88;25.23;;;7.80;99.90;;;;;;5029333;28;20518;-63
2021/12/28 02:50:48;;;;;;;61.25;25.38;;;7.80;99.90;;;;;;5029180;28;20042;-63
2021/12/28 02:53:15;;;;;;;56.72;24.50;;;7.80;99.90;;;;;;5029225;28;20033;-63
2021/12/28 02:55:42;;;;;;;59.28;24.63;;;7.80;99.90;;;;;;5028964;28;20041;-63
2021/12/28 02:58:23;;;;;;;53.53;24.05;;;7.80;99.90;;;;;;5030456;28;20087;-63
2021/12/28 03:01:12;;;;;;;59.60;24.67;;;7.80;99.90;;;;;;5032998;28;20087;-63
2021/12/28 03:03:38;;;;;;;57.03;24.35;;;7.80;99.90;;;;;;5032496;28;20045;-63
2021/12/28 03:06:08;;;;;;;58.22;24.52;;;7.90;99.90;;;;;;5032355;28;20045;-63
2021/12/28 03:08:36;;;;;;;55.60;23.55;;;7.80;99.90;;;;;;5032468;28;20401;-63
2021/12/28 03:11:03;;;;;;;59.22;23.73;;;7.80;99.90;;;;;;5031154;28;20060;-63
2021/12/28 03:13:39;;;;;;;59.47;23.10;;;7.70;99.90;;;;;;5032530;28;20052;-63
2021/12/28 03:16:05;;;;;;;53.50;23.33;;;7.70;99.90;;;;;;5032427;28;20065;-63
2021/12/28 03:18:31;;;;;;;51.80;23.30;;;7.60;99.90;;;;;;5030926;28;20037;-63
2021/12/28 03:20:58;;;;;;;55.70;23.83;;;7.50;99.90;;;;;;5032459;28;20041;-63
2021/12/28 03:23:24;;;;;;;58.75;23.83;;;7.30;99.90;;;;;;5032489;28;20661;-63
2021/12/28 03:25:51;;;;;;;57.45;23.75;;;7.20;99.90;;;;;;5032177;28;20041;-63
2021/12/28 03:28:19;;;;;;;48.67;22.33;;;7.00;99.90;;;;;;5032174;28;20083;-63
2021/12/28 03:30:45;;;;;;;68.63;24.48;;;6.90;99.90;;;;;;5032117;28;20125;-63
2021/12/28 03:33:11;;;;;;;77.25;25.90;;;6.90;99.90;;;;;;5031861;28;20037;-63
2021/12/28 03:35:37;;;;;;;75.22;26.17;;;6.80;99.90;;;;;;5032260;28;20079;-63
2021/12/28 03:38:03;;;;;;;76.75;25.70;;;6.70;99.90;;;;;;5032174;28;20483;-63
2021/12/28 03:40:28;;;;;;;87.35;27.58;;;6.70;99.90;;;;;;5028612;28;20561;-63
2021/12/28 03:42:54;;;;;;;97.13;28.60;;;6.70;99.90;;;;;;5012095;28;20163;-63
2021/12/28 03:45:20;;;;;;;100.82;27.60;;;6.70;99.90;;;;;;5012226;28;20454;-63
2021/12/28 03:47:46;;;;;;;128.27;29.23;;;6.70;99.90;;;;;;5011924;28;20041;-63
2021/12/28 03:50:12;;;;;;;116.30;29.10;;;6.80;99.90;;;;;;5012129;28;20119;-63
2021/12/28 03:52:39;;;;;;;148.55;29.08;;;6.80;99.90;;;;;;5011958;28;20176;-63
2021/12/28 03:55:06;;;;;;;128.38;29.90;;;6.80;99.90;;;;;;5012153;28;20030;-63
2021/12/28 03:57:32;;;;;;;206.65;31.33;;;6.80;99.90;;;;;;5011862;28;20584;-63
2021/12/28 03:59:57;;;;;;;180.27;30.85;;;6.80;99.90;;;;;;5011837;28;20042;-63
2021/12/28 04:02:23;;;;;;;228.27;29.80;;;6.80;99.90;;;;;;5011560;28;20038;-63
2021/12/28 04:04:49;;;;;;;228.57;30.63;;;6.80;99.90;;;;;;5011989;28;20121;-63
2021/12/28 04:07:19;;;;;;;163.45;29.25;;;6.70;99.90;;;;;;5011949;28;20053;-63
2021/12/28 04:09:59;;;;;;;286.92;30.40;;;6.70;99.90;;;;;;5010220;28;20049;-63
2021/12/28 04:12:25;;;;;;;110.38;25.67;;;6.60;99.90;;;;;;5010480;28;20100;-63
2021/12/28 04:14:51;;;;;;;109.70;26.13;;;6.60;99.90;;;;;;5010445;28;20625;-63
2021/12/28 04:17:17;;;;;;;89.28;24.20;;;6.70;99.90;;;;;;5011827;28;20145;-63
2021/12/28 04:19:43;;;;;;;87.55;24.95;;;6.70;99.90;;;;;;5010258;28;20486;-63
2021/12/28 04:22:09;;;;;;;91.28;25.38;;;6.70;99.90;;;;;;5011494;28;20042;-63
2021/12/28 04:24:34;;;;;;;87.22;25.33;;;6.70;99.90;;;;;;5011161;28;20042;-63
2021/12/28 04:27:00;;;;;;;85.95;24.33;;;6.80;99.90;;;;;;5018142;28;20474;-63
2021/12/28 04:29:26;;;;;;;80.70;24.88;;;6.90;99.90;;;;;;5019951;28;20045;-63
2021/12/28 04:31:51;;;;;;;83.68;25.10;;;6.90;99.90;;;;;;5011133;28;20046;-63
2021/12/28 04:34:17;;;;;;;74.90;23.20;;;6.90;99.90;;;;;;5011218;28;20045;-63
2021/12/28 04:36:42;;;;;;;69.30;22.80;;;7.00;99.90;;;;;;5011269;28;20042;-63
2021/12/28 04:39:08;;;;;;;70.60;22.27;;;7.00;99.90;;;;;;5010863;28;20121;-63
2021/12/28 04:41:37;;;;;;;62.13;20.77;;;7.00;99.90;;;;;;5010409;28;20072;-63
2021/12/28 04:44:03;;;;;;;65.95;22.48;;;7.00;99.90;;;;;;5010605;28;20129;-63
2021/12/28 04:46:29;;;;;;;59.53;22.23;;;6.90;99.90;;;;;;5011362;28;20117;-63
2021/12/28 04:48:55;;;;;;;55.88;21.48;;;7.00;99.90;;;;;;5010832;28;20502;-63
2021/12/28 04:51:22;;;;;;;60.70;20.73;;;6.90;99.90;;;;;;5010851;28;20121;-63
2021/12/28 04:53:49;;;;;;;60.05;21.58;;;6.90;99.90;;;;;;5010524;28;20567;-63
2021/12/28 04:56:15;;;;;;;60.42;21.05;;;7.00;99.90;;;;;;5011061;28;20053;-63
2021/12/28 04:58:40;;;;;;;56.00;20.88;;;7.10;99.90;;;;;;5010594;28;20042;-63
2021/12/28 05:01:06;;;;;;;53.03;19.95;;;7.00;99.90;;;;;;5010893;28;20108;-63
2021/12/28 05:03:31;;;;;;;56.55;21.02;;;7.10;99.90;;;;;;5009169;28;20052;-63
2021/12/28 05:05:57;;;;;;;59.40;21.83;;;7.10;99.90;;;;;;5010742;28;20048;-63
2021/12/28 05:08:23;;;;;;;50.47;20.45;;;7.10;99.90;;;;;;5010582;28;20685;-63
2021/12/28 05:10:50;;;;;;;50.33;20.85;;;7.10;99.90;;;;;;5010589;28;20568;-63
2021/12/28 05:13:16;;;;;;;64.80;20.15;;;7.10;99.90;;;;;;5010095;28;20165;-63
2021/12/28 05:15:43;;;;;;;49.97;19.90;;;7.10;99.90;;;;;;5010716;28;20124;-63
2021/12/28 05:18:10;;;;;;;48.67;20.17;;;7.10;99.90;;;;;;5010684;28;20037;-63
2021/12/28 05:20:37;;;;;;;50.50;20.55;;;7.10;99.90;;;;;;5009846;28;20116;-63
2021/12/28 05:23:03;;;;;;;55.38;20.48;;;7.10;99.90;;;;;;5009164;28;20056;-63
2021/12/28 05:25:29;;;;;;;45.58;19.15;;;7.10;99.90;;;;;;5010317;28;20053;-63
2021/12/28 05:27:54;;;;;;;46.95;19.88;;;7.10;99.90;;;;;;5010466;28;20041;-63
2021/12/28 05:30:20;;;;;;;44.20;18.52;;;7.10;99.90;;;;;;5010351;28;20081;-63
2021/12/28 05:32:46;;;;;;;39.35;18.60;;;7.10;99.90;;;;;;5010023;28;20072;-63
2021/12/28 05:35:11;;;;;;;42.33;18.00;;;7.00;99.90;;;;;;5010269;28;20406;-63
2021/12/28 05:37:37;;;;;;;43.08;18.20;;;7.10;99.90;;;;;;5010353;28;20100;-64
2021/12/28 05:40:05;;;;;;;36.05;16.88;;;7.00;99.90;;;;;;5010183;28;20092;-63
2021/12/28 05:42:31;;;;;;;36.70;16.45;;;6.90;99.90;;;;;;5009615;28;20422;-63
2021/12/28 05:44:56;;;;;;;39.88;16.38;;;6.80;99.90;;;;;;5010317;28;20042;-63
2021/12/28 05:47:22;;;;;;;35.22;16.85;;;6.70;99.90;;;;;;5010318;28;20724;-63
2021/12/28 05:49:47;;;;;;;36.60;16.15;;;6.70;99.90;;;;;;5010073;28;20038;-63
2021/12/28 05:52:13;;;;;;;33.83;15.70;;;6.70;99.90;;;;;;5009066;28;20042;-63
2021/12/28 05:54:38;;;;;;;34.45;16.42;;;6.70;99.90;;;;;;5009881;28;20034;-63
2021/12/28 05:57:04;;;;;;;39.17;15.90;;;6.70;99.90;;;;;;5010082;28;20782;-63
2021/12/28 05:59:30;;;;;;;37.83;16.30;;;6.70;99.90;;;;;;5010129;28;20038;-63
2021/12/28 06:01:57;;;;;;;33.17;15.13;;;6.70;99.90;;;;;;5010107;28;20127;-63
2021/12/28 06:04:23;;;;;;;32.63;15.48;;;6.70;99.90;;;;;;5009835;28;20092;-63
2021/12/28 06:06:49;;;;;;;33.53;16.15;;;6.70;99.90;;;;;;5009983;28;20065;-63
2021/12/28 06:09:14;;;;;;;37.88;15.25;;;6.80;99.90;;;;;;5009742;28;20486;-63
2021/12/28 06:11:40;;;;;;;35.40;15.55;;;6.80;99.90;;;;;;5009735;28;20815;-63
2021/12/28 06:14:06;;;;;;;30.40;14.10;;;6.80;99.90;;;;;;5009919;28;20445;-63
2021/12/28 06:16:34;;;;;;;34.95;14.95;;;6.80;99.90;;;;;;5009793;28;20096;-63
2021/12/28 06:19:00;;;;;;;32.05;14.95;;;6.90;99.90;;;;;;5009790;28;20065;-63
2021/12/28 06:21:26;;;;;;;35.83;15.13;;;6.90;99.90;;;;;;5009835;28;20498;-63
2021/12/28 06:23:51;;;;;;;35.95;15.75;;;6.90;99.90;;;;;;5009560;28;20514;-63
2021/12/28 06:26:17;;;;;;;33.08;14.20;;;6.90;99.90;;;;;;5009610;28;20041;-63
2021/12/28 06:28:42;;;;;;;33.53;14.48;;;7.00;99.90;;;;;;5009730;28;20537;-63
2021/12/28 06:31:08;;;;;;;32.65;14.85;;;6.90;99.90;;;;;;5008377;28;20049;-63
2021/12/28 06:33:34;;;;;;;32.97;15.25;;;7.00;99.90;;;;;;5011392;28;20121;-63
2021/12/28 06:35:59;;;;;;;48.88;17.70;;;7.00;99.90;;;;;;5013496;28;20116;-63
2021/12/28 06:38:25;;;;;;;38.63;16.05;;;6.90;99.90;;;;;;5013347;28;20152;-63
2021/12/28 06:40:50;;;;;;;37.38;16.80;;;6.90;99.90;;;;;;5013205;28;20042;-63
2021/12/28 06:43:16;;;;;;;33.33;15.85;;;6.90;99.90;;;;;;5013328;28;20413;-63
2021/12/28 06:45:42;;;;;;;34.33;16.40;;;6.90;99.90;;;;;;5013426;28;20049;-63
2021/12/28 06:48:07;;;;;;;33.92;16.15;;;6.90;99.90;;;;;;5013273;28;20049;-63
2021/12/28 06:50:33;;;;;;;32.55;16.40;;;6.90;99.90;;;;;;5013183;28;20046;-63
2021/12/28 06:52:59;;;;;;;36.58;16.58;;;6.80;99.90;;;;;;5012869;28;20040;-63
2021/12/28 06:55:24;;;;;;;33.47;16.65;;;6.80;99.90;;;;;;5013346;28;20483;-63
2021/12/28 06:57:50;;;;;;;34.58;16.35;;;6.80;99.90;;;;;;5013181;28;20109;-63
2021/12/28 07:00:18;;;;;;;38.45;16.40;;;6.80;99.90;;;;;;5013098;28;20045;-63
2021/12/28 07:02:44;;;;;;;30.73;15.65;;;6.80;99.90;;;;;;5012820;28;20287;-63
2021/12/28 07:05:11;;;;;;;28.60;14.93;;;6.80;99.90;;;;;;5013053;28;20088;-63
2021/12/28 07:07:38;;;;;;;29.38;14.13;;;6.80;99.90;;;;;;5009759;28;20081;-63
2021/12/28 07:10:06;;;;;;;32.75;14.23;;;6.80;99.90;;;;;;5010022;28;20129;-63
2021/12/28 07:12:31;;;;;;;27.17;14.13;;;6.80;99.90;;;;;;5009955;28;20041;-63
2021/12/28 07:14:57;;;;;;;28.02;13.32;;;6.80;99.90;;;;;;5012832;28;20038;-63
2021/12/28 07:17:22;;;;;;;29.08;14.05;;;6.80;99.90;;;;;;5012896;28;20661;-63
2021/12/28 07:19:48;;;;;;;33.95;13.90;;;6.80;99.90;;;;;;5012722;28;20445;-63
2021/12/28 07:22:14;;;;;;;27.15;13.45;;;6.80;99.90;;;;;;5012299;28;20498;-63
2021/12/28 07:24:39;;;;;;;27.33;13.38;;;6.80;99.90;;;;;;5012442;28;20045;-63
2021/12/28 07:27:05;;;;;;;32.47;13.15;;;6.80;99.90;;;;;;5012807;28;20037;-63
2021/12/28 07:29:33;;;;;;;29.92;13.07;;;6.80;99.90;;;;;;5012452;28;20406;-63
2021/12/28 07:32:00;;;;;;;31.15;13.23;;;6.80;99.90;;;;;;5012501;28;20095;-63
2021/12/28 07:34:26;;;;;;;27.77;13.55;;;6.80;99.90;;;;;;5012233;28;20034;-63
2021/12/28 07:36:51;;;;;;;30.52;12.68;;;6.80;99.90;;;;;;5012368;28;20041;-63
2021/12/28 07:39:17;;;;;;;25.23;12.63;;;6.80;99.90;;;;;;5012543;28;20049;-63
2021/12/28 07:41:42;;;;;;;27.80;11.90;;;6.80;99.90;;;;;;5012295;28;20049;-63
2021/12/28 07:44:08;;;;;;;32.42;12.57;;;6.80;99.90;;;;;;5011509;28;20091;-63
2021/12/28 07:46:34;;;;;;;29.33;12.77;;;6.80;99.90;;;;;;5012315;28;20038;-63
2021/12/28 07:48:59;;;;;;;28.55;12.98;;;6.80;99.90;;;;;;5012245;28;20038;-63
2021/12/28 07:51:25;;;;;;;29.27;12.40;;;6.80;99.90;;;;;;5011771;28;20624;-63
2021/12/28 07:53:50;;;;;;;26.80;13.13;;;6.90;99.90;;;;;;5011463;28;20605;-64
2021/12/28 07:56:16;;;;;;;25.35;12.00;;;6.80;99.90;;;;;;5011765;28;20120;-64
2021/12/28 07:58:42;;;;;;;27.85;11.98;;;6.80;99.90;;;;;;5012167;28;20042;-63
2021/12/28 08:01:07;;;;;;;35.40;13.32;;;6.80;99.90;;;;;;5011885;28;20037;-63
2021/12/28 08:03:33;;;;;;;24.92;10.85;;;6.80;99.90;;;;;;5011694;28;20044;-64
2021/12/28 08:05:58;;;;;;;25.77;11.82;;;6.90;99.90;;;;;;5011526;28;20654;-64
2021/12/28 08:08:24;;;;;;;28.55;11.95;;;6.80;99.90;;;;;;5011948;28;20088;-64
2021/12/28 08:10:49;;;;;;;25.70;11.10;;;6.90;99.90;;;;;;5010705;28;20049;-64
2021/12/28 08:13:16;;;;;;;30.67;11.65;;;6.90;99.90;;;;;;5011314;28;20088;-63
2021/12/28 08:15:43;;;;;;;23.98;11.07;;;6.90;99.90;;;;;;5011600;28;20049;-64
2021/12/28 08:18:09;;;;;;;26.08;11.30;;;6.90;99.90;;;;;;5011819;28;20034;-64
2021/12/28 08:20:36;;;;;;;21.70;10.98;;;6.90;99.90;;;;;;5011502;28;20041;-63
2021/12/28 08:23:02;;;;;;;25.58;11.32;;;6.90;99.90;;;;;;5010862;28;20113;-62
2021/12/28 08:25:27;;;;;;;24.35;10.13;;;6.90;99.90;;;;;;5017321;28;20037;-62
2021/12/28 08:27:53;;;;;;;21.90;10.73;;;6.90;99.90;;;;;;5029726;28;20049;-62
2021/12/28 08:30:20;;;;;;;32.83;10.70;;;7.00;99.90;;;;;;5029446;28;20068;-62
2021/12/28 08:32:47;;;;;;;23.75;10.32;;;7.10;99.90;;;;;;5028950;28;20045;-62
2021/12/28 08:35:14;;;;;;;35.78;10.82;;;7.00;99.90;;;;;;5029418;28;20041;-62
2021/12/28 08:37:40;;;;;;;23.00;10.52;;;7.00;99.90;;;;;;5029735;28;20534;-63
2021/12/28 08:40:08;;;;;;;22.73;9.68;;;7.10;99.90;;;;;;5030790;28;20077;-63
2021/12/28 08:42:33;;;;;;;21.02;9.75;;;7.10;99.90;;;;;;5030673;28;20037;-64
2021/12/28 08:44:59;;;;;;;25.35;9.10;;;7.10;99.90;;;;;;5026824;28;20049;-62
2021/12/28 08:47:27;;;;;;;26.27;9.98;;;7.10;99.90;;;;;;5030375;28;20425;-62
2021/12/28 08:49:58;;;;;;;23.13;8.43;;;7.20;99.90;;;;;;5030326;28;20041;-63
2021/12/28 08:52:24;;;;;;;27.23;9.55;;;7.20;99.90;;;;;;5030106;28;20044;-63
2021/12/28 08:54:50;;;;;;;21.45;9.27;;;7.30;99.90;;;;;;5029022;28;20043;-62
2021/12/28 08:57:17;;;;;;;24.67;9.05;;;7.30;99.90;;;;;;5010655;28;20117;-62
2021/12/28 08:59:43;;;;;;;21.90;8.82;;;7.30;99.90;;;;;;5009357;28;20053;-62
2021/12/28 09:02:09;;;;;;;17.90;8.50;;;7.30;99.90;;;;;;5010771;28;20129;-63
2021/12/28 09:04:39;;;;;;;19.17;7.78;;;7.40;99.90;;;;;;5010448;28;20684;-62
2021/12/28 09:07:05;;;;;;;21.38;8.73;;;7.40;99.90;;;;;;5010563;28;20092;-63
2021/12/28 09:09:31;;;;;;;23.90;8.75;;;7.40;99.90;;;;;;5010212;28;20038;-63
2021/12/28 09:11:57;;;;;;;23.45;9.05;;;7.40;99.90;;;;;;5012989;28;20119;-62
2021/12/28 09:14:22;;;;;;;22.45;8.57;;;7.50;99.90;;;;;;5012863;28;20038;-62
2021/12/28 09:16:48;;;;;;;19.17;8.93;;;7.50;99.90;;;;;;5009948;28;20406;-62
2021/12/28 09:19:14;;;;;;;21.67;8.00;;;7.50;99.90;;;;;;5010251;28;20179;-63
2021/12/28 09:21:39;;;;;;;21.88;9.02;;;7.60;99.90;;;;;;5010347;28;20053;-63
2021/12/28 09:24:05;;;;;;;22.23;8.40;;;7.60;99.90;;;;;;5009874;28;20081;-62
2021/12/28 09:26:31;;;;;;;15.70;7.90;;;7.60;99.90;;;;;;5018966;28;20029;-63
2021/12/28 09:28:57;;;;;;;22.40;8.82;;;7.70;99.90;;;;;;5029850;28;20046;-63
2021/12/28 09:31:22;;;;;;;21.30;8.77;;;7.70;99.90;;;;;;5029637;28;20159;-63
2021/12/28 09:33:48;;;;;;;22.00;8.35;;;7.80;99.90;;;;;;5028184;28;20045;-63
2021/12/28 09:36:16;;;;;;;23.25;8.63;;;7.80;99.90;;;;;;5029855;28;20116;-64
2021/12/28 09:38:43;;;;;;;20.00;8.00;;;7.90;99.90;;;;;;5028660;28;20581;-63
2021/12/28 09:41:09;;;;;;;27.30;9.00;;;7.90;99.90;;;;;;5029521;28;20037;-63
2021/12/28 09:43:35;;;;;;;21.92;7.55;;;8.00;99.90;;;;;;5029566;28;20570;-63
2021/12/28 09:46:01;;;;;;;16.30;7.55;;;8.00;99.90;;;;;;5029693;28;20571;-63
2021/12/28 09:48:26;;;;;;;23.20;7.88;;;8.00;99.90;;;;;;5029798;28;20080;-63
2021/12/28 09:50:52;;;;;;;24.35;7.70;;;8.00;99.90;;;;;;5029655;28;20244;-63
2021/12/28 09:53:18;;;;;;;19.45;7.45;;;8.10;99.90;;;;;;5029482;28;20120;-63
2021/12/28 09:55:43;;;;;;;20.25;7.28;;;8.10;99.90;;;;;;5029726;28;20121;-63
2021/12/28 09:58:09;;;;;;;19.30;7.55;;;8.10;99.90;;;;;;5029374;28;20041;-63
2021/12/28 10:00:35;;;;;;;18.80;7.97;;;8.20;99.90;;;;;;5028387;28;20053;-63
2021/12/28 10:03:01;;;;;;;17.77;6.88;;;8.20;99.90;;;;;;5029626;28;20052;-62
2021/12/28 10:05:29;;;;;;;22.75;7.88;;;8.30;99.90;;;;;;5026622;28;20080;-63
2021/12/28 10:07:57;;;;;;;18.38;7.55;;;8.30;99.90;;;;;;5029372;28;20068;-63
2021/12/28 10:10:29;;;;;;;23.15;8.18;;;8.30;99.90;;;;;;5030767;28;20107;-63
2021/12/28 10:13:01;;;;;;;18.38;7.05;;;8.30;99.90;;;;;;5030417;28;20053;-62
2021/12/28 10:15:32;;;;;;;14.05;6.88;;;8.30;99.90;;;;;;5031641;28;20069;-63
2021/12/28 10:18:01;;;;;;;14.57;6.97;;;8.30;99.90;;;;;;5033698;28;20045;-62
2021/12/28 10:20:46;;;;;;;19.42;7.30;;;8.30;99.90;;;;;;5033388;28;20463;-64
2021/12/28 10:23:15;;;;;;;20.20;7.78;;;8.30;99.90;;;;;;5033337;28;20120;-62
2021/12/28 10:25:47;;;;;;;21.52;8.05;;;8.30;99.90;;;;;;5033208;28;20123;-63
2021/12/28 10:28:15;;;;;;;25.05;8.43;;;8.30;99.90;;;;;;5033763;28;20053;-62
2021/12/28 10:30:48;;;;;;;21.70;8.55;;;8.30;99.90;;;;;;5033455;28;20453;-62
2021/12/28 10:33:17;;;;;;;21.95;8.35;;;8.30;99.90;;;;;;5033153;28;20041;-63
2021/12/28 10:35:46;;;;;;;23.02;8.40;;;8.20;99.90;;;;;;5033198;28;20052;-62
2021/12/28 10:38:19;;;;;;;19.95;7.82;;;8.30;99.90;;;;;;5033220;28;20401;-63
2021/12/28 10:40:48;;;;;;;24.42;8.23;;;8.30;99.90;;;;;;5031858;28;20500;-63
2021/12/28 10:43:16;;;;;;;22.77;8.00;;;8.30;99.90;;;;;;5031584;28;20041;-63
2021/12/28 10:45:44;;;;;;;22.60;8.75;;;8.30;99.90;;;;;;5033109;28;20095;-63
2021/12/28 10:48:15;;;;;;;21.55;7.47;;;8.30;99.90;;;;;;5033217;28;20037;-63
2021/12/28 10:50:43;;;;;;;20.90;8.20;;;8.40;99.90;;;;;;5032673;28;20056;-63
2021/12/28 10:53:19;;;;;;;28.17;9.05;;;8.30;99.90;;;;;;5032924;28;20049;-63
2021/12/28 10:55:48;;;;;;;36.28;9.70;;;8.30;99.90;;;;;;5032903;28;20037;-62
2021/12/28 10:58:35;;;;;;;31.75;9.10;;;8.30;99.90;;;;;;5031703;28;20477;-63
2021/12/28 11:01:06;;;;;;;25.83;8.85;;;8.30;99.90;;;;;;5032627;28;20108;-62
2021/12/28 11:03:34;;;;;;;28.40;8.48;;;8.30;99.90;;;;;;5032523;28;20044;-63
2021/12/28 11:06:06;;;;;;;26.48;9.27;;;8.40;99.90;;;;;;5032576;28;20042;-63
2021/12/28 11:08:32;;;;;;;27.58;9.48;;;8.40;99.90;;;;;;5031495;28;20037;-63
2021/12/28 11:11:05;;;;;;;30.33;9.48;;;8.40;99.90;;;;;;5032572;28;20080;-64
2021/12/28 11:13:32;;;;;;;24.35;9.00;;;8.40;99.90;;;;;;5030981;28;20071;-63
2021/12/28 11:15:59;;;;;;;23.70;9.68;;;8.40;99.90;;;;;;5032419;28;20040;-63
2021/12/28 11:18:43;;;;;;;28.73;10.10;;;8.40;99.90;;;;;;5030385;28;20042;-63
2021/12/28 11:21:22;;;;;;;28.00;10.05;;;8.40;99.90;;;;;;5032326;28;20396;-63
2021/12/28 11:23:53;;;;;;;26.48;10.15;;;8.50;99.90;;;;;;5032151;28;20072;-63
2021/12/28 11:26:28;;;;;;;28.77;11.18;;;8.50;99.90;;;;;;5032253;28;20452;-63
2021/12/28 11:28:58;;;;;;;25.17;8.85;;;8.40;99.90;;;;;;5031292;28;20613;-63
2021/12/28 11:31:29;;;;;;;24.48;10.23;;;8.50;99.90;;;;;;5032336;28;20072;-63
2021/12/28 11:34:03;;;;;;;26.65;10.40;;;8.50;99.90;;;;;;5031928;28;20037;-64
2021/12/28 11:36:32;;;;;;;26.20;11.40;;;8.50;99.90;;;;;;5031953;28;20041;-63
2021/12/28 11:39:00;;;;;;;25.77;10.55;;;8.60;99.90;;;;;;5032326;28;20041;-63
2021/12/28 11:41:27;;;;;;;25.77;11.05;;;8.60;99.90;;;;;;5032318;28;20533;-62
2021/12/28 11:43:54;;;;;;;29.25;11.00;;;8.60;99.90;;;;;;5031800;28;20041;-62
2021/12/28 11:46:21;;;;;;;24.35;11.07;;;8.70;99.90;;;;;;5030649;28;20409;-62
2021/12/28 11:48:46;;;;;;;22.02;11.07;;;8.70;99.90;;;;;;5031888;28;20060;-62
2021/12/28 11:51:12;;;;;;;23.55;11.38;;;8.70;99.90;;;;;;5031207;28;20112;-64
2021/12/28 11:53:46;;;;;;;26.45;10.82;;;8.70;99.90;;;;;;5020564;28;20052;-62
2021/12/28 11:56:13;;;;;;;22.90;10.77;;;8.60;99.90;;;;;;5021759;28;20040;-62
2021/12/28 11:58:55;;;;;;;25.08;11.20;;;8.60;99.90;;;;;;5026463;28;20037;-63
2021/12/28 12:01:36;;;;;;;;;;;8.60;99.90;;;;;;5032259;28;20060;-63
2021/12/28 12:04:01;;;;;;;23.60;11.13;;;8.60;99.90;;;;;;5018997;28;19992;-63
2021/12/28 12:06:56;;;;;;;32.45;12.48;;;8.70;99.90;;;;;;5020055;28;20037;-63
2021/12/28 12:09:22;;;;;;;28.30;12.43;;;8.70;99.90;;;;;;5022307;28;20180;-63
2021/12/28 12:12:35;;;;;;;25.38;13.23;;;8.70;99.90;;;;;;5021766;28;20561;-63
2021/12/28 12:15:03;;;;;;;29.15;14.00;;;8.70;99.90;;;;;;4991854;28;20038;-62
2021/12/28 12:17:29;;;;;;;35.10;14.30;;;8.70;99.90;;;;;;5020860;28;20233;-63
2021/12/28 12:19:57;;;;;;;24.65;12.35;;;8.70;99.90;;;;;;5024771;28;20505;-62
2021/12/28 12:22:41;;;;;;;27.92;13.30;;;8.80;99.90;;;;;;5031238;28;20567;-62
2021/12/28 12:25:12;;;;;;;30.67;13.50;;;8.80;99.90;;;;;;5020383;28;20045;-63
2021/12/28 12:27:45;;;;;;;31.70;14.40;;;8.80;99.90;;;;;;5025382;28;20525;-62
2021/12/28 12:30:28;;;;;;;27.80;13.40;;;8.80;99.90;;;;;;5031106;28;20459;-63
2021/12/28 12:33:06;;;;;;;34.83;14.07;;;8.80;99.90;;;;;;5030862;28;20038;-63
2021/12/28 12:35:39;;;;;;;30.10;14.25;;;8.80;99.90;;;;;;5031065;28;20041;-63
2021/12/28 12:38:10;;;;;;;26.17;12.73;;;8.80;99.90;;;;;;5031116;28;20041;-63
2021/12/28 12:40:59;;;;;;;28.13;13.65;;;8.80;99.90;;;;;;5030897;28;20052;-63